createdAt,value
2022-11-17T00:01:09.713Z,1002.8
2022-11-17T00:02:24.784Z,1002.8
2022-11-17T00:03:40.970Z,1002.8
2022-11-17T00:04:57.158Z,1002.8
2022-11-17T00:06:13.484Z,1002.8
2022-11-17T00:07:29.524Z,1002.8
2022-11-17T00:08:45.714Z,1002.8
2022-11-17T00:10:02.028Z,1002.8
2022-11-17T00:11:18.084Z,1002.8
2022-11-17T00:12:34.416Z,1002.8
2022-11-17T00:13:50.608Z,1002.8
2022-11-17T00:15:06.649Z,1002.7
2022-11-17T00:16:22.971Z,1002.8
2022-11-17T00:17:39.173Z,1002.7
2022-11-17T00:18:54.368Z,1002.8
2022-11-17T00:20:10.556Z,1002.8
2022-11-17T00:21:26.753Z,1002.7
2022-11-17T00:22:42.936Z,1002.6
2022-11-17T00:23:59.135Z,1002.6
2022-11-17T00:25:15.309Z,1002.6
2022-11-17T00:26:31.506Z,1002.6
2022-11-17T00:27:47.696Z,1002.6
2022-11-17T00:29:03.742Z,1002.6
2022-11-17T00:30:20.069Z,1002.6
2022-11-17T00:31:36.115Z,1002.5
2022-11-17T00:32:52.306Z,1002.7
2022-11-17T00:34:08.429Z,1002.6
2022-11-17T00:35:23.616Z,1002.6
2022-11-17T00:36:39.819Z,1002.6
2022-11-17T00:37:56.091Z,1002.6
2022-11-17T00:39:12.187Z,1002.6
2022-11-17T00:40:28.384Z,1002.6
2022-11-17T00:41:44.639Z,1002.6
2022-11-17T00:43:00.763Z,1002.6
2022-11-17T00:44:17.027Z,1002.6
2022-11-17T00:45:33.211Z,1002.6
2022-11-17T00:46:49.325Z,1002.6
2022-11-17T00:48:05.519Z,1002.6
2022-11-17T00:49:21.702Z,1002.5
2022-11-17T00:50:37.974Z,1002.6
2022-11-17T00:51:53.102Z,1002.5
2022-11-17T00:53:09.292Z,1002.4
2022-11-17T00:54:25.544Z,1002.5
2022-11-17T00:55:41.656Z,1002.6
2022-11-17T00:56:57.855Z,1002.4
2022-11-17T00:58:14.046Z,1002.5
2022-11-17T00:59:30.238Z,1002.4
2022-11-17T01:00:46.425Z,1002.5
2022-11-17T01:02:02.604Z,1002.5
2022-11-17T01:03:18.804Z,1002.5
2022-11-17T01:04:34.988Z,1002.5
2022-11-17T01:05:51.168Z,1002.5
2022-11-17T01:07:07.369Z,1002.6
2022-11-17T01:08:22.636Z,1002.5
2022-11-17T01:09:38.827Z,1002.4
2022-11-17T01:10:54.954Z,1002.4
2022-11-17T01:12:11.140Z,1002.5
2022-11-17T01:13:27.327Z,1002.5
2022-11-17T01:14:43.518Z,1002.5
2022-11-17T01:15:59.781Z,1002.4
2022-11-17T01:17:15.958Z,1002.4
2022-11-17T01:18:32.088Z,1002.5
2022-11-17T01:19:48.280Z,1002.4
2022-11-17T01:21:04.535Z,1002.4
2022-11-17T01:22:20.643Z,1002.5
2022-11-17T01:23:36.912Z,1002.4
2022-11-17T01:24:52.053Z,1002.4
2022-11-17T01:26:08.227Z,1002.4
2022-11-17T01:27:24.431Z,1002.4
2022-11-17T01:28:40.609Z,1002.3
2022-11-17T01:29:56.802Z,1002.4
2022-11-17T01:31:12.982Z,1002.4
2022-11-17T01:32:29.246Z,1002.4
2022-11-17T01:33:45.364Z,1002.4
2022-11-17T01:35:01.565Z,1002.4
2022-11-17T01:36:17.754Z,1002.4
2022-11-17T01:37:33.929Z,1002.3
2022-11-17T01:38:50.196Z,1002.2
2022-11-17T01:40:06.316Z,1002.3
2022-11-17T01:41:21.528Z,1002.4
2022-11-17T01:42:37.702Z,1002.4
2022-11-17T01:43:53.892Z,1002.3
2022-11-17T01:45:10.159Z,1002.3
2022-11-17T01:46:26.273Z,1002.3
2022-11-17T01:47:42.464Z,1002.3
2022-11-17T01:48:57.684Z,1002.2
2022-11-17T01:50:13.856Z,1002.2
2022-11-17T01:51:30.063Z,1002.2
2022-11-17T01:52:46.237Z,1002.2
2022-11-17T01:54:02.507Z,1002.2
2022-11-17T01:55:18.622Z,1002.2
2022-11-17T01:56:34.814Z,1002.1
2022-11-17T01:57:50.999Z,1002.2
2022-11-17T01:59:07.253Z,1002.1
2022-11-17T02:00:23.385Z,1002.1
2022-11-17T02:01:39.626Z,1002.1
2022-11-17T02:02:55.763Z,1002.1
2022-11-17T02:04:12.011Z,1002.1
2022-11-17T02:05:27.154Z,1002.1
2022-11-17T02:06:43.336Z,1002.1
2022-11-17T02:07:59.525Z,1002.1
2022-11-17T02:09:15.777Z,1002.2
2022-11-17T02:10:31.967Z,1002.1
2022-11-17T02:11:48.109Z,1002.1
2022-11-17T02:13:04.289Z,1002.1
2022-11-17T02:14:20.536Z,1002.1
2022-11-17T02:15:36.666Z,1002.1
2022-11-17T02:16:52.914Z,1002
2022-11-17T02:18:09.045Z,1002.1
2022-11-17T02:19:25.226Z,1002
2022-11-17T02:20:41.428Z,1002
2022-11-17T02:21:56.628Z,1002.1
2022-11-17T02:23:12.876Z,1002.1
2022-11-17T02:24:29.067Z,1002.1
2022-11-17T02:25:45.188Z,1002
2022-11-17T02:27:01.395Z,1002
2022-11-17T02:28:17.626Z,1002
2022-11-17T02:29:33.770Z,1001.9
2022-11-17T02:30:49.953Z,1002
2022-11-17T02:32:06.201Z,1002
2022-11-17T02:33:22.393Z,1001.9
2022-11-17T02:34:38.568Z,1001.9
2022-11-17T02:35:54.764Z,1001.9
2022-11-17T02:37:10.899Z,1002
2022-11-17T02:38:26.097Z,1002
2022-11-17T02:39:42.292Z,1002
2022-11-17T02:40:58.531Z,1002
2022-11-17T02:42:14.678Z,1001.9
2022-11-17T02:43:30.864Z,1002
2022-11-17T02:44:47.100Z,1002
2022-11-17T02:46:03.241Z,1002
2022-11-17T02:47:19.481Z,1002
2022-11-17T02:48:35.665Z,1002
2022-11-17T02:49:51.808Z,1002
2022-11-17T02:51:07.998Z,1002
2022-11-17T02:52:24.189Z,1001.9
2022-11-17T02:53:40.384Z,1001.9
2022-11-17T02:54:55.630Z,1001.8
2022-11-17T02:56:11.772Z,1001.8
2022-11-17T02:57:27.967Z,1001.8
2022-11-17T02:58:44.145Z,1001.8
2022-11-17T03:00:00.383Z,1001.8
2022-11-17T03:01:16.573Z,1001.7
2022-11-17T03:02:32.776Z,1001.8
2022-11-17T03:03:48.912Z,1001.7
2022-11-17T03:05:05.094Z,1001.7
2022-11-17T03:06:21.299Z,1001.8
2022-11-17T03:07:37.481Z,1001.7
2022-11-17T03:08:53.676Z,1001.7
2022-11-17T03:10:09.863Z,1001.7
2022-11-17T03:11:25.068Z,1001.8
2022-11-17T03:12:41.244Z,1001.7
2022-11-17T03:13:57.477Z,1001.8
2022-11-17T03:15:13.630Z,1001.7
2022-11-17T03:16:29.813Z,1001.8
2022-11-17T03:17:46.002Z,1001.7
2022-11-17T03:19:02.200Z,1001.8
2022-11-17T03:20:18.387Z,1001.8
2022-11-17T03:21:34.583Z,1001.8
2022-11-17T03:22:50.763Z,1001.7
2022-11-17T03:24:06.957Z,1001.7
2022-11-17T03:25:23.183Z,1001.7
2022-11-17T03:26:39.338Z,1001.7
2022-11-17T03:27:54.538Z,1001.6
2022-11-17T03:29:10.737Z,1001.7
2022-11-17T03:30:26.912Z,1001.6
2022-11-17T03:31:43.111Z,1001.7
2022-11-17T03:32:59.350Z,1001.6
2022-11-17T03:34:15.489Z,1001.6
2022-11-17T03:35:31.676Z,1001.7
2022-11-17T03:36:47.857Z,1001.7
2022-11-17T03:38:04.051Z,1001.7
2022-11-17T03:39:20.274Z,1001.7
2022-11-17T03:40:36.464Z,1001.7
2022-11-17T03:41:52.627Z,1001.7
2022-11-17T03:43:08.853Z,1001.8
2022-11-17T03:44:24.007Z,1001.7
2022-11-17T03:45:40.245Z,1001.8
2022-11-17T03:46:56.433Z,1001.7
2022-11-17T03:48:12.616Z,1001.7
2022-11-17T03:49:28.783Z,1001.8
2022-11-17T03:50:44.959Z,1001.7
2022-11-17T03:52:01.188Z,1001.6
2022-11-17T03:53:17.341Z,1001.6
2022-11-17T03:54:33.529Z,1001.6
2022-11-17T03:55:49.752Z,1001.5
2022-11-17T03:57:05.907Z,1001.5
2022-11-17T03:58:22.100Z,1001.5
2022-11-17T03:59:38.328Z,1001.6
2022-11-17T04:00:53.539Z,1001.6
2022-11-17T04:02:09.692Z,1001.6
2022-11-17T04:03:25.869Z,1001.6
2022-11-17T04:04:42.095Z,1001.5
2022-11-17T04:05:58.264Z,1001.5
2022-11-17T04:07:14.439Z,1001.5
2022-11-17T04:08:30.626Z,1001.6
2022-11-17T04:09:46.827Z,1001.5
2022-11-17T04:11:03.053Z,1001.6
2022-11-17T04:12:19.208Z,1001.6
2022-11-17T04:13:35.386Z,1001.6
2022-11-17T04:14:51.571Z,1001.6
2022-11-17T04:16:07.763Z,1001.6
2022-11-17T04:17:23.010Z,1001.5
2022-11-17T04:18:39.193Z,1001.5
2022-11-17T04:19:55.350Z,1001.6
2022-11-17T04:21:11.577Z,1001.5
2022-11-17T04:22:27.728Z,1001.5
2022-11-17T04:23:43.922Z,1001.4
2022-11-17T04:25:00.112Z,1001.4
2022-11-17T04:26:16.303Z,1001.4
2022-11-17T04:27:32.479Z,1001.4
2022-11-17T04:28:48.719Z,1001.4
2022-11-17T04:30:04.907Z,1001.4
2022-11-17T04:31:21.052Z,1001.4
2022-11-17T04:32:37.249Z,1001.4
2022-11-17T04:33:52.492Z,1001.4
2022-11-17T04:35:08.636Z,1001.4
2022-11-17T04:36:24.823Z,1001.4
2022-11-17T04:37:41.017Z,1001.4
2022-11-17T04:38:57.218Z,1001.3
2022-11-17T04:40:13.432Z,1001.3
2022-11-17T04:41:29.593Z,1001.3
2022-11-17T04:42:45.785Z,1001.3
2022-11-17T04:44:01.989Z,1001.3
2022-11-17T04:45:18.193Z,1001.3
2022-11-17T04:46:34.346Z,1001.3
2022-11-17T04:47:50.532Z,1001.3
2022-11-17T04:49:06.750Z,1001.3
2022-11-17T04:50:21.927Z,1001.3
2022-11-17T04:51:38.115Z,1001.3
2022-11-17T04:52:54.306Z,1001.4
2022-11-17T04:54:10.501Z,1001.2
2022-11-17T04:55:26.717Z,1001.3
2022-11-17T04:56:42.880Z,1001.3
2022-11-17T04:57:59.079Z,1001.3
2022-11-17T04:59:15.247Z,1001.3
2022-11-17T05:00:31.439Z,1001.3
2022-11-17T05:01:47.633Z,1001.3
2022-11-17T05:03:03.815Z,1001.3
2022-11-17T05:04:20.022Z,1001.4
2022-11-17T05:05:36.206Z,1001.3
2022-11-17T05:06:51.413Z,1001.3
2022-11-17T05:08:07.616Z,1001.3
2022-11-17T05:09:23.794Z,1001.2
2022-11-17T05:10:39.992Z,1001.2
2022-11-17T05:11:56.189Z,1001.3
2022-11-17T05:13:12.360Z,1001.3
2022-11-17T05:14:28.547Z,1001.3
2022-11-17T05:15:44.726Z,1001.3
2022-11-17T05:17:00.917Z,1001.3
2022-11-17T05:18:17.115Z,1001.2
2022-11-17T05:19:33.320Z,1001.2
2022-11-17T05:20:49.486Z,1001.2
2022-11-17T05:22:05.683Z,1001.1
2022-11-17T05:23:20.882Z,1001.2
2022-11-17T05:24:37.064Z,1001.2
2022-11-17T05:25:53.263Z,1001.2
2022-11-17T05:27:09.474Z,1001.2
2022-11-17T05:28:25.630Z,1001.2
2022-11-17T05:29:41.829Z,1001.1
2022-11-17T05:30:58.028Z,1001.2
2022-11-17T05:32:14.228Z,1001.1
2022-11-17T05:33:30.415Z,1001
2022-11-17T05:34:46.577Z,1001
2022-11-17T05:36:02.782Z,1000.9
2022-11-17T05:37:18.962Z,1001
2022-11-17T05:38:35.159Z,1001
2022-11-17T05:39:50.355Z,1001
2022-11-17T05:41:06.540Z,1000.9
2022-11-17T05:42:22.747Z,1001
2022-11-17T05:43:38.928Z,1000.9
2022-11-17T05:44:55.115Z,1000.9
2022-11-17T05:46:11.315Z,1000.9
2022-11-17T05:47:27.497Z,1000.9
2022-11-17T05:48:43.675Z,1000.9
2022-11-17T05:49:59.896Z,1000.8
2022-11-17T05:51:16.063Z,1000.8
2022-11-17T05:52:32.252Z,1000.8
2022-11-17T05:53:48.444Z,1000.8
2022-11-17T05:55:04.630Z,1000.8
2022-11-17T05:56:19.858Z,1000.8
2022-11-17T05:57:36.034Z,1000.9
2022-11-17T05:58:52.212Z,1000.8
2022-11-17T06:00:08.405Z,1000.8
2022-11-17T06:01:24.596Z,1000.8
2022-11-17T06:02:40.787Z,1001
2022-11-17T06:03:55.997Z,1000.9
2022-11-17T06:05:12.190Z,1000.9
2022-11-17T06:06:28.370Z,1001
2022-11-17T06:07:44.570Z,1001
2022-11-17T06:09:00.752Z,1001
2022-11-17T06:10:16.932Z,1001
2022-11-17T06:11:33.139Z,1001
2022-11-17T06:12:49.320Z,1001
2022-11-17T06:14:05.515Z,1001
2022-11-17T06:15:21.702Z,1001
2022-11-17T06:16:37.878Z,1001
2022-11-17T06:17:54.074Z,1001
2022-11-17T06:19:10.263Z,1000.9
2022-11-17T06:20:25.474Z,1000.9
2022-11-17T06:21:41.668Z,1000.9
2022-11-17T06:22:57.851Z,1000.9
2022-11-17T06:24:14.042Z,1001
2022-11-17T06:25:30.236Z,1001
2022-11-17T06:26:46.426Z,1001
2022-11-17T06:28:02.617Z,1001
2022-11-17T06:29:18.799Z,1000.9
2022-11-17T06:30:34.989Z,1000.9
2022-11-17T06:31:51.174Z,1000.9
2022-11-17T06:33:07.354Z,1000.9
2022-11-17T06:34:23.558Z,1000.9
2022-11-17T06:35:39.752Z,1000.9
2022-11-17T06:36:54.942Z,1000.9
2022-11-17T06:38:11.142Z,1000.9
2022-11-17T06:39:27.332Z,1000.9
2022-11-17T06:40:43.511Z,1000.9
2022-11-17T06:41:59.710Z,1000.8
2022-11-17T06:43:15.899Z,1000.8
2022-11-17T06:44:32.083Z,1000.8
2022-11-17T06:45:48.283Z,1000.8
2022-11-17T06:47:04.469Z,1000.7
2022-11-17T06:48:20.648Z,1000.7
2022-11-17T06:49:36.849Z,1000.8
2022-11-17T06:50:53.020Z,1000.8
2022-11-17T06:52:09.208Z,1000.7
2022-11-17T06:53:24.426Z,1000.7
2022-11-17T06:54:40.601Z,1000.7
2022-11-17T06:55:56.806Z,1000.7
2022-11-17T06:57:12.992Z,1000.6
2022-11-17T06:58:29.182Z,1000.6
2022-11-17T06:59:45.370Z,1000.6
2022-11-17T07:01:01.569Z,1000.6
2022-11-17T07:02:17.737Z,1000.5
2022-11-17T07:03:33.935Z,1000.5
2022-11-17T07:04:50.127Z,1000.6
2022-11-17T07:06:06.319Z,1000.6
2022-11-17T07:07:22.514Z,1000.6
2022-11-17T07:08:38.694Z,1000.5
2022-11-17T07:09:53.902Z,1000.5
2022-11-17T07:11:10.080Z,1000.5
2022-11-17T07:12:26.281Z,1000.5
2022-11-17T07:13:42.461Z,1000.3
2022-11-17T07:14:58.658Z,1000.5
2022-11-17T07:16:14.837Z,1000.4
2022-11-17T07:17:31.033Z,1000.4
2022-11-17T07:18:47.215Z,1000.4
2022-11-17T07:20:03.415Z,1000.4
2022-11-17T07:21:19.587Z,1000.3
2022-11-17T07:22:35.791Z,1000.3
2022-11-17T07:23:51.975Z,1000.4
2022-11-17T07:25:08.171Z,1000.4
2022-11-17T07:26:23.383Z,1000.4
2022-11-17T07:27:39.548Z,1000.5
2022-11-17T07:28:55.751Z,1000.4
2022-11-17T07:30:11.945Z,1000.4
2022-11-17T07:31:28.142Z,1000.5
2022-11-17T07:32:44.327Z,1000.5
2022-11-17T07:34:00.505Z,1000.5
2022-11-17T07:35:16.694Z,1000.5
2022-11-17T07:36:32.869Z,1000.5
2022-11-17T07:37:49.089Z,1000.6
2022-11-17T07:39:05.264Z,1000.5
2022-11-17T07:40:21.454Z,1000.7
2022-11-17T07:41:37.648Z,1000.5
2022-11-17T07:42:52.847Z,1000.6
2022-11-17T07:44:09.021Z,1000.6
2022-11-17T07:45:25.231Z,1000.6
2022-11-17T07:46:41.416Z,1000.5
2022-11-17T07:47:57.612Z,1000.6
2022-11-17T07:49:13.796Z,1000.6
2022-11-17T07:50:29.990Z,1000.6
2022-11-17T07:51:46.156Z,1000.6
2022-11-17T07:53:02.355Z,1000.6
2022-11-17T07:54:18.537Z,1000.6
2022-11-17T07:55:34.749Z,1000.6
2022-11-17T07:56:50.913Z,1000.5
2022-11-17T07:58:07.129Z,1000.6
2022-11-17T07:59:22.321Z,1000.5
2022-11-17T08:00:38.528Z,1000.6
2022-11-17T08:01:54.694Z,1000.6
2022-11-17T08:03:10.900Z,1000.5
2022-11-17T08:04:27.097Z,1000.6
2022-11-17T08:05:43.269Z,1000.5
2022-11-17T08:06:59.474Z,1000.5
2022-11-17T08:08:15.659Z,1000.5
2022-11-17T08:09:31.838Z,1000.5
2022-11-17T08:10:48.025Z,1000.4
2022-11-17T08:12:04.215Z,1000.5
2022-11-17T08:13:20.421Z,1000.5
2022-11-17T08:14:36.588Z,1000.5
2022-11-17T08:15:51.816Z,1000.5
2022-11-17T08:17:07.998Z,1000.5
2022-11-17T08:18:24.177Z,1000.5
2022-11-17T08:19:40.377Z,1000.5
2022-11-17T08:20:56.572Z,1000.5
2022-11-17T08:22:12.735Z,1000.3
2022-11-17T08:23:28.942Z,1000.4
2022-11-17T08:24:45.139Z,1000.5
2022-11-17T08:26:01.318Z,1000.5
2022-11-17T08:27:17.507Z,1000.4
2022-11-17T08:28:33.693Z,1000.4
2022-11-17T08:29:49.865Z,1000.4
2022-11-17T08:31:06.061Z,1000.4
2022-11-17T08:32:21.288Z,1000.3
2022-11-17T08:33:37.453Z,1000.3
2022-11-17T08:34:53.662Z,1000.4
2022-11-17T08:36:09.862Z,1000.3
2022-11-17T08:37:26.012Z,1000.4
2022-11-17T08:38:42.229Z,1000.3
2022-11-17T08:39:58.411Z,1000.2
2022-11-17T08:41:14.603Z,1000.2
2022-11-17T08:42:30.799Z,1000.3
2022-11-17T08:43:46.958Z,1000.3
2022-11-17T08:45:03.157Z,1000.3
2022-11-17T08:46:19.362Z,1000.2
2022-11-17T08:47:35.536Z,1000.2
2022-11-17T08:48:50.787Z,1000.3
2022-11-17T08:50:06.942Z,1000.2
2022-11-17T08:51:23.100Z,1000.2
2022-11-17T08:52:39.303Z,1000.2
2022-11-17T08:53:55.515Z,1000.2
2022-11-17T08:55:11.709Z,1000.2
2022-11-17T08:56:27.900Z,1000.2
2022-11-17T08:57:44.088Z,1000.3
2022-11-17T08:59:00.274Z,1000.3
2022-11-17T09:00:16.434Z,1000.3
2022-11-17T09:01:32.647Z,1000.3
2022-11-17T09:02:48.820Z,1000.3
2022-11-17T09:04:05.030Z,1000.1
2022-11-17T09:05:20.237Z,1000.3
2022-11-17T09:06:36.392Z,1000.2
2022-11-17T09:07:52.583Z,1000.3
2022-11-17T09:09:08.804Z,1000.3
2022-11-17T09:10:25.001Z,1000.2
2022-11-17T09:11:41.188Z,1000.3
2022-11-17T09:12:57.364Z,1000.3
2022-11-17T09:14:13.564Z,1000.3
2022-11-17T09:15:29.716Z,1000.4
2022-11-17T09:16:45.941Z,1000.4
2022-11-17T09:18:02.122Z,1000.3
2022-11-17T09:19:18.277Z,1000.4
2022-11-17T09:20:34.470Z,1000.4
2022-11-17T09:21:49.713Z,1000.4
2022-11-17T09:23:05.898Z,1000.5
2022-11-17T09:24:22.095Z,1000.5
2022-11-17T09:25:38.272Z,1000.6
2022-11-17T09:26:54.473Z,1000.5
2022-11-17T09:28:10.653Z,1000.5
2022-11-17T09:29:26.819Z,1000.5
2022-11-17T09:30:43.042Z,1000.5
2022-11-17T09:31:59.198Z,1000.5
2022-11-17T09:33:15.418Z,1000.4
2022-11-17T09:34:31.561Z,1000.4
2022-11-17T09:35:47.792Z,1000.4
2022-11-17T09:37:03.950Z,1000.4
2022-11-17T09:38:19.199Z,1000.4
2022-11-17T09:39:35.380Z,1000.3
2022-11-17T09:40:51.578Z,1000.4
2022-11-17T09:42:07.757Z,1000.4
2022-11-17T09:43:23.958Z,1000.5
2022-11-17T09:44:40.096Z,1000.4
2022-11-17T09:45:56.283Z,1000.4
2022-11-17T09:47:12.474Z,1000.4
2022-11-17T09:48:28.656Z,1000.4
2022-11-17T09:49:44.892Z,1000.3
2022-11-17T09:51:01.075Z,1000.3
2022-11-17T09:52:17.260Z,1000.4
2022-11-17T09:53:33.413Z,1000.3
2022-11-17T09:54:48.645Z,1000.3
2022-11-17T09:56:04.839Z,1000.3
2022-11-17T09:57:21.026Z,1000.4
2022-11-17T09:58:37.216Z,1000.3
2022-11-17T09:59:53.361Z,1000.4
2022-11-17T10:01:09.589Z,1000.3
2022-11-17T10:02:25.766Z,1000.3
2022-11-17T10:03:41.927Z,1000.4
2022-11-17T10:04:58.106Z,1000.4
2022-11-17T10:06:14.294Z,1000.4
2022-11-17T10:07:30.517Z,1000.3
2022-11-17T10:08:46.669Z,1000.4
2022-11-17T10:10:02.903Z,1000.4
2022-11-17T10:11:18.106Z,1000.4
2022-11-17T10:12:34.287Z,1000.4
2022-11-17T10:13:50.428Z,1000.5
2022-11-17T10:15:06.629Z,1000.4
2022-11-17T10:16:22.801Z,1000.3
2022-11-17T10:17:39.033Z,1000.3
2022-11-17T10:18:54.258Z,1000.4
2022-11-17T10:20:10.434Z,1000.2
2022-11-17T10:21:26.624Z,1000.3
2022-11-17T10:22:42.822Z,1000.3
2022-11-17T10:23:58.944Z,1000.3
2022-11-17T10:25:15.146Z,1000.3
2022-11-17T10:26:31.383Z,1000.3
2022-11-17T10:27:47.566Z,1000.2
2022-11-17T10:29:03.744Z,1000.3
2022-11-17T10:30:19.946Z,1000.2
2022-11-17T10:31:36.084Z,1000.3
2022-11-17T10:32:52.324Z,1000.1
2022-11-17T10:34:08.505Z,1000.2
2022-11-17T10:35:23.697Z,1000.2
2022-11-17T10:36:39.888Z,1000.1
2022-11-17T10:37:56.072Z,1000.1
2022-11-17T10:39:12.272Z,1000.1
2022-11-17T10:40:28.449Z,1000.2
2022-11-17T10:41:44.580Z,1000.2
2022-11-17T10:43:00.822Z,1000
2022-11-17T10:44:16.964Z,1000
2022-11-17T10:45:33.197Z,1000
2022-11-17T10:46:49.344Z,1000.1
2022-11-17T10:48:05.581Z,1000.1
2022-11-17T10:49:21.702Z,1000
2022-11-17T10:50:37.000Z,1000
2022-11-17T10:51:53.153Z,1000
2022-11-17T10:53:09.354Z,1000
2022-11-17T10:54:25.538Z,1000
2022-11-17T10:55:41.716Z,999.9
2022-11-17T10:56:57.912Z,1000
2022-11-17T10:58:14.041Z,1000
2022-11-17T10:59:30.276Z,1000
2022-11-17T11:00:46.463Z,1000
2022-11-17T11:02:02.660Z,999.9
2022-11-17T11:03:18.787Z,999.9
2022-11-17T11:04:35.028Z,999.9
2022-11-17T11:05:51.227Z,999.8
2022-11-17T11:07:07.346Z,999.8
2022-11-17T11:08:22.546Z,999.7
2022-11-17T11:09:38.794Z,999.7
2022-11-17T11:10:54.984Z,999.7
2022-11-17T11:12:11.181Z,999.7
2022-11-17T11:13:27.357Z,999.6
2022-11-17T11:14:43.494Z,999.7
2022-11-17T11:15:59.738Z,999.7
2022-11-17T11:17:15.862Z,999.6
2022-11-17T11:18:32.118Z,999.6
2022-11-17T11:19:48.301Z,999.5
2022-11-17T11:21:04.494Z,999.6
2022-11-17T11:22:20.615Z,999.6
2022-11-17T11:23:36.806Z,999.5
2022-11-17T11:24:52.000Z,999.6
2022-11-17T11:26:08.186Z,999.6
2022-11-17T11:27:24.449Z,999.6
2022-11-17T11:28:40.635Z,999.6
2022-11-17T11:29:56.761Z,999.6
2022-11-17T11:31:13.007Z,999.6
2022-11-17T11:32:29.132Z,999.5
2022-11-17T11:33:45.309Z,999.6
2022-11-17T11:35:01.565Z,999.5
2022-11-17T11:36:17.749Z,999.5
2022-11-17T11:37:33.888Z,999.5
2022-11-17T11:38:50.136Z,999.5
2022-11-17T11:40:06.319Z,999.5
2022-11-17T11:41:21.454Z,999.5
2022-11-17T11:42:37.703Z,999.5
2022-11-17T11:43:53.901Z,999.5
2022-11-17T11:45:10.079Z,999.4
2022-11-17T11:46:26.207Z,999.5
2022-11-17T11:47:42.396Z,999.4
2022-11-17T11:48:58.647Z,999.4
2022-11-17T11:50:14.841Z,999.3
2022-11-17T11:51:30.964Z,999.4
2022-11-17T11:52:47.148Z,999.4
2022-11-17T11:54:03.330Z,999.4
2022-11-17T11:55:19.523Z,999.3
2022-11-17T11:56:35.771Z,999.3
2022-11-17T11:57:50.971Z,999.3
2022-11-17T11:59:07.171Z,999.3
2022-11-17T12:00:23.343Z,999.4
2022-11-17T12:01:39.543Z,999.3
2022-11-17T12:02:55.654Z,999.4
2022-11-17T12:04:11.917Z,999.3
2022-11-17T12:05:28.037Z,999.3
2022-11-17T12:06:44.000Z,999.2
2022-11-17T12:08:00.407Z,999.3
2022-11-17T12:09:16.660Z,999.3
2022-11-17T12:10:32.787Z,999.3
2022-11-17T12:11:49.045Z,999.2
2022-11-17T12:13:05.225Z,999.2
2022-11-17T12:14:20.429Z,999.1
2022-11-17T12:15:36.535Z,999.2
2022-11-17T12:16:52.817Z,999.3
2022-11-17T12:18:09.004Z,999.2
2022-11-17T12:19:25.101Z,999.2
2022-11-17T12:20:41.361Z,999.3
2022-11-17T12:21:57.566Z,999.3
2022-11-17T12:23:13.744Z,999.3
2022-11-17T12:24:29.942Z,999.3
2022-11-17T12:25:46.036Z,999.3
2022-11-17T12:27:02.311Z,999.2
2022-11-17T12:28:18.500Z,999.3
2022-11-17T12:29:34.679Z,999.3
2022-11-17T12:30:49.810Z,999.3
2022-11-17T12:32:05.993Z,999.3
2022-11-17T12:33:22.193Z,999.2
2022-11-17T12:34:38.379Z,999.3
2022-11-17T12:35:54.634Z,999.3
2022-11-17T12:37:10.816Z,999.3
2022-11-17T12:38:26.926Z,999.3
2022-11-17T12:39:43.201Z,999.3
2022-11-17T12:40:59.391Z,999.3
2022-11-17T12:42:15.577Z,999.3
2022-11-17T12:43:31.771Z,999.3
2022-11-17T12:44:47.946Z,999.3
2022-11-17T12:46:04.133Z,999.4
2022-11-17T12:47:19.334Z,999.3
2022-11-17T12:48:35.519Z,999.4
2022-11-17T12:49:51.720Z,999.3
2022-11-17T12:51:07.904Z,999.2
2022-11-17T12:52:24.082Z,999.2
2022-11-17T12:53:40.200Z,999.3
2022-11-17T12:54:56.392Z,999.2
2022-11-17T12:56:12.656Z,999.2
2022-11-17T12:57:28.759Z,999.2
2022-11-17T12:58:45.029Z,999.3
2022-11-17T13:00:01.222Z,999.2
2022-11-17T13:01:17.395Z,999.1
2022-11-17T13:02:33.596Z,999.2
2022-11-17T13:03:48.700Z,999.2
2022-11-17T13:05:04.987Z,999.2
2022-11-17T13:06:21.174Z,999.2
2022-11-17T13:07:37.354Z,999.1
2022-11-17T13:08:53.551Z,999.2
2022-11-17T13:10:09.729Z,999.2
2022-11-17T13:11:25.828Z,999.2
2022-11-17T13:12:42.109Z,999.2
2022-11-17T13:13:58.297Z,999.1
2022-11-17T13:15:14.483Z,999.2
2022-11-17T13:16:30.571Z,999.1
2022-11-17T13:17:46.866Z,999.2
2022-11-17T13:19:02.957Z,999.3
2022-11-17T13:20:18.158Z,999.1
2022-11-17T13:21:34.437Z,999.2
2022-11-17T13:22:50.625Z,999.1
2022-11-17T13:24:06.814Z,999.2
2022-11-17T13:25:22.901Z,999.2
2022-11-17T13:26:39.093Z,999.2
2022-11-17T13:27:55.376Z,999.2
2022-11-17T13:29:11.568Z,999.2
2022-11-17T13:30:27.739Z,999.1
2022-11-17T13:31:43.943Z,999.1
2022-11-17T13:33:00.122Z,999.1
2022-11-17T13:34:16.307Z,999.1
2022-11-17T13:35:32.489Z,999.1
2022-11-17T13:36:47.603Z,999.1
2022-11-17T13:38:03.886Z,999
2022-11-17T13:39:19.995Z,999.1
2022-11-17T13:40:36.270Z,998.9
2022-11-17T13:41:52.349Z,999.1
2022-11-17T13:43:08.544Z,999
2022-11-17T13:44:24.732Z,999
2022-11-17T13:45:41.012Z,999
2022-11-17T13:46:57.202Z,999
2022-11-17T13:48:13.304Z,999.1
2022-11-17T13:49:29.487Z,999.1
2022-11-17T13:50:45.764Z,999
2022-11-17T13:52:01.960Z,999.1
2022-11-17T13:53:17.067Z,999.2
2022-11-17T13:54:33.257Z,999.1
2022-11-17T13:55:49.522Z,999.1
2022-11-17T13:57:05.724Z,999.1
2022-11-17T13:58:21.905Z,999.1
2022-11-17T13:59:38.091Z,999
2022-11-17T14:00:54.181Z,999.1
2022-11-17T14:02:10.480Z,999.2
2022-11-17T14:03:26.652Z,999.1
2022-11-17T14:04:42.841Z,999.1
2022-11-17T14:05:59.031Z,999
2022-11-17T14:07:15.217Z,999
2022-11-17T14:08:31.413Z,999.1
2022-11-17T14:09:46.608Z,999
2022-11-17T14:11:02.799Z,999
2022-11-17T14:12:18.891Z,999
2022-11-17T14:13:35.177Z,999
2022-11-17T14:14:51.358Z,999
2022-11-17T14:16:07.558Z,999
2022-11-17T14:17:23.746Z,999
2022-11-17T14:18:39.928Z,998.9
2022-11-17T14:19:56.001Z,999
2022-11-17T14:21:12.309Z,998.9
2022-11-17T14:22:28.497Z,998.9
2022-11-17T14:23:44.677Z,998.9
2022-11-17T14:25:00.770Z,998.9
2022-11-17T14:26:15.963Z,999
2022-11-17T14:27:32.149Z,999
2022-11-17T14:28:48.440Z,999
2022-11-17T14:30:04.531Z,998.9
2022-11-17T14:31:20.000Z,999
2022-11-17T14:32:37.015Z,998.9
2022-11-17T14:33:52.223Z,998.9
2022-11-17T14:35:08.397Z,998.9
2022-11-17T14:36:24.587Z,999
2022-11-17T14:37:40.780Z,998.9
2022-11-17T14:38:56.957Z,999
2022-11-17T14:40:13.057Z,998.9
2022-11-17T14:41:29.229Z,999
2022-11-17T14:42:45.521Z,999
2022-11-17T14:44:01.713Z,998.9
2022-11-17T14:45:17.800Z,998.9
2022-11-17T14:46:33.976Z,998.9
2022-11-17T14:47:50.274Z,999
2022-11-17T14:49:06.458Z,999
2022-11-17T14:50:21.558Z,999
2022-11-17T14:51:37.744Z,999
2022-11-17T14:52:54.041Z,999
2022-11-17T14:54:10.124Z,999
2022-11-17T14:55:26.314Z,999
2022-11-17T14:56:42.606Z,999
2022-11-17T14:57:58.000Z,999
2022-11-17T14:59:14.992Z,998.9
2022-11-17T15:00:31.049Z,998.9
2022-11-17T15:01:47.359Z,999
2022-11-17T15:03:03.424Z,999
2022-11-17T15:04:19.741Z,998.9
2022-11-17T15:05:35.810Z,998.9
2022-11-17T15:06:51.125Z,998.9
2022-11-17T15:08:07.309Z,999
2022-11-17T15:09:23.492Z,999
2022-11-17T15:10:39.683Z,999
2022-11-17T15:11:55.867Z,999
2022-11-17T15:13:12.061Z,999
2022-11-17T15:14:28.245Z,998.9
2022-11-17T15:15:44.432Z,998.9
2022-11-17T15:17:00.633Z,998.8
2022-11-17T15:18:16.808Z,998.9
2022-11-17T15:19:32.995Z,998.9
2022-11-17T15:20:49.067Z,998.8
2022-11-17T15:22:05.365Z,999
2022-11-17T15:23:20.578Z,998.9
2022-11-17T15:24:36.774Z,998.9
2022-11-17T15:25:52.829Z,998.8
2022-11-17T15:27:09.146Z,998.9
2022-11-17T15:28:25.204Z,998.9
2022-11-17T15:29:41.393Z,998.9
2022-11-17T15:30:57.705Z,998.9
2022-11-17T15:32:13.884Z,998.9
2022-11-17T15:33:30.078Z,998.9
2022-11-17T15:34:46.276Z,998.9
2022-11-17T15:36:02.463Z,998.9
2022-11-17T15:37:18.647Z,998.9
2022-11-17T15:38:34.833Z,998.9
2022-11-17T15:39:50.030Z,998.9
2022-11-17T15:41:06.221Z,998.9
2022-11-17T15:42:22.280Z,998.9
2022-11-17T15:43:38.480Z,998.9
2022-11-17T15:44:54.792Z,998.9
2022-11-17T15:46:10.964Z,999
2022-11-17T15:47:27.149Z,999
2022-11-17T15:48:43.336Z,998.9
2022-11-17T15:49:59.406Z,999
2022-11-17T15:51:15.596Z,998.9
2022-11-17T15:52:31.903Z,999
2022-11-17T15:53:48.089Z,998.9
2022-11-17T15:55:04.281Z,998.9
2022-11-17T15:56:19.478Z,999
2022-11-17T15:57:35.683Z,998.9
2022-11-17T15:58:51.729Z,999
2022-11-17T16:00:08.055Z,998.9
2022-11-17T16:01:24.230Z,998.9
2022-11-17T16:02:40.424Z,999
2022-11-17T16:03:56.615Z,998.9
2022-11-17T16:05:12.808Z,999
2022-11-17T16:06:28.983Z,999
2022-11-17T16:07:45.183Z,998.9